createdAt,value
2017-04-08T00:00:53.784Z,22.38
2017-04-08T00:02:02.561Z,22.39
2017-04-08T00:03:11.300Z,22.43
2017-04-08T00:04:20.357Z,22.41
2017-04-08T00:05:29.133Z,22.38
2017-04-08T00:06:38.223Z,22.44
2017-04-08T00:07:46.960Z,22.36
2017-04-08T00:08:56.017Z,22.33
2017-04-08T00:10:05.410Z,22.41
2017-04-08T00:11:14.200Z,22.44
2017-04-08T00:12:22.951Z,22.39
2017-04-08T00:13:32.315Z,22.35
2017-04-08T00:14:41.681Z,22.36
2017-04-08T00:15:50.777Z,22.36
2017-04-08T00:17:00.129Z,22.39
2017-04-08T00:18:08.831Z,22.41
2017-04-08T00:19:17.887Z,22.3
2017-04-08T00:20:26.966Z,22.28
2017-04-08T00:21:35.719Z,22.29
2017-04-08T00:22:44.480Z,22.3
2017-04-08T00:23:53.568Z,22.25
2017-04-08T00:25:02.397Z,22.3
2017-04-08T00:26:11.692Z,22.36
2017-04-08T00:27:20.741Z,22.33
2017-04-08T00:28:29.763Z,22.29
2017-04-08T00:29:38.470Z,22.33
2017-04-08T00:30:47.530Z,22.25
2017-04-08T00:31:56.476Z,22.29
2017-04-08T00:33:05.869Z,22.32
2017-04-08T00:34:15.865Z,22.28
2017-04-08T00:35:24.654Z,22.33
2017-04-08T00:36:33.435Z,22.23
2017-04-08T00:37:42.480Z,22.28
2017-04-08T00:38:51.844Z,22.28
2017-04-08T00:40:00.578Z,22.29
2017-04-08T00:41:09.941Z,22.26
2017-04-08T00:42:19.024Z,22.23
2017-04-08T00:43:28.420Z,22.25
2017-04-08T00:44:38.425Z,22.29
2017-04-08T00:45:47.821Z,22.3
2017-04-08T00:46:56.616Z,22.26
2017-04-08T00:48:05.669Z,22.26
2017-04-08T00:49:15.037Z,22.25
2017-04-08T00:50:24.435Z,22.28
2017-04-08T00:51:33.219Z,22.25
2017-04-08T00:52:41.996Z,22.18
2017-04-08T00:53:51.405Z,22.17
2017-04-08T00:55:00.492Z,22.23
2017-04-08T00:56:09.272Z,22.15
2017-04-08T00:57:18.673Z,22.15
2017-04-08T00:58:28.686Z,22.15
2017-04-08T00:59:37.760Z,22.29
2017-04-08T01:00:46.848Z,22.18
2017-04-08T01:01:55.942Z,22.17
2017-04-08T01:03:04.729Z,22.13
2017-04-08T01:04:13.812Z,22.15
2017-04-08T01:05:22.894Z,22.2
2017-04-08T01:06:31.976Z,22.17
2017-04-08T01:07:40.760Z,22.15
2017-04-08T01:08:49.856Z,22.18
2017-04-08T01:09:58.905Z,22.22
2017-04-08T01:11:07.979Z,22.15
2017-04-08T01:12:16.751Z,22.17
2017-04-08T01:13:26.142Z,22.2
2017-04-08T01:14:36.136Z,22.15
2017-04-08T01:15:45.533Z,22.22
2017-04-08T01:16:54.289Z,22.18
2017-04-08T01:18:03.058Z,22.25
2017-04-08T01:19:12.150Z,22.2
2017-04-08T01:20:21.440Z,22.23
2017-04-08T01:21:30.216Z,22.25
2017-04-08T01:22:39.298Z,22.2
2017-04-08T01:23:48.046Z,22.18
2017-04-08T01:24:56.788Z,22.15
2017-04-08T01:26:06.095Z,22.18
2017-04-08T01:27:15.488Z,22.18
2017-04-08T01:28:24.265Z,22.2
2017-04-08T01:29:33.355Z,22.11
2017-04-08T01:30:42.139Z,22.14
2017-04-08T01:31:50.919Z,22.17
2017-04-08T01:33:00.007Z,22.11
2017-04-08T01:34:08.791Z,22.13
2017-04-08T01:35:17.861Z,22.14
2017-04-08T01:36:26.634Z,22.13
2017-04-08T01:37:35.372Z,22.14
2017-04-08T01:38:44.130Z,22.1
2017-04-08T01:39:52.916Z,22.04
2017-04-08T01:41:02.313Z,22.2
2017-04-08T01:42:11.404Z,22.1
2017-04-08T01:43:20.139Z,22.13
2017-04-08T01:44:28.897Z,22.1
2017-04-08T01:45:37.987Z,22.11
2017-04-08T01:46:46.773Z,22.07
2017-04-08T01:47:56.175Z,22.15
2017-04-08T01:49:04.889Z,22.17
2017-04-08T01:50:13.945Z,22.06
2017-04-08T01:51:22.728Z,22.02
2017-04-08T01:52:32.085Z,22.13
2017-04-08T01:53:41.442Z,22.13
2017-04-08T01:54:50.527Z,22.08
2017-04-08T01:55:59.880Z,22.06
2017-04-08T01:57:08.638Z,22.08
2017-04-08T01:58:17.742Z,22.08
2017-04-08T01:59:27.442Z,22.06
2017-04-08T02:00:36.180Z,22.07
2017-04-08T02:01:45.276Z,22.07
2017-04-08T02:02:54.712Z,22.04
2017-04-08T02:04:03.840Z,22.15
2017-04-08T02:05:12.627Z,22.13
2017-04-08T02:06:21.673Z,22.08
2017-04-08T02:07:30.704Z,22.13
2017-04-08T02:08:39.788Z,22.06
2017-04-08T02:09:48.813Z,22.08
2017-04-08T02:10:57.808Z,22
2017-04-08T02:12:06.740Z,22.08
2017-04-08T02:13:15.465Z,21.99
2017-04-08T02:14:24.492Z,22.04
2017-04-08T02:15:33.263Z,22.1
2017-04-08T02:16:42.339Z,22.06
2017-04-08T02:17:51.684Z,22.04
2017-04-08T02:19:00.726Z,22.1
2017-04-08T02:20:09.793Z,22
2017-04-08T02:21:19.161Z,22.02
2017-04-08T02:22:28.537Z,21.96
2017-04-08T02:23:37.331Z,21.98
2017-04-08T02:24:46.701Z,22
2017-04-08T02:25:55.469Z,21.95
2017-04-08T02:27:04.206Z,22.04
2017-04-08T02:28:12.951Z,21.96
2017-04-08T02:29:22.629Z,22.06
2017-04-08T02:30:31.698Z,21.98
2017-04-08T02:31:40.436Z,22.04
2017-04-08T02:32:49.450Z,22
2017-04-08T02:33:58.177Z,21.99
2017-04-08T02:35:07.214Z,21.98
2017-04-08T02:36:16.260Z,21.98
2017-04-08T02:37:25.329Z,22.06
2017-04-08T02:38:34.097Z,21.99
2017-04-08T02:39:42.862Z,21.98
2017-04-08T02:40:51.628Z,21.98
2017-04-08T02:42:00.397Z,21.93
2017-04-08T02:43:09.507Z,22.06
2017-04-08T02:44:18.541Z,21.96
2017-04-08T02:45:27.842Z,21.98
2017-04-08T02:46:36.586Z,21.98
2017-04-08T02:47:45.943Z,21.93
2017-04-08T02:48:54.973Z,21.99
2017-04-08T02:50:03.695Z,21.96
2017-04-08T02:51:12.465Z,21.92
2017-04-08T02:52:21.230Z,21.95
2017-04-08T02:53:29.997Z,21.98
2017-04-08T02:54:38.754Z,22
2017-04-08T02:55:47.827Z,21.95
2017-04-08T02:56:56.590Z,21.95
2017-04-08T02:58:05.660Z,21.92
2017-04-08T02:59:14.392Z,21.93
2017-04-08T03:00:23.129Z,21.93
2017-04-08T03:01:31.859Z,21.96
2017-04-08T03:02:40.587Z,21.93
2017-04-08T03:03:49.357Z,21.88
2017-04-08T03:04:58.418Z,21.95
2017-04-08T03:06:07.509Z,21.93
2017-04-08T03:07:16.240Z,21.95
2017-04-08T03:08:24.968Z,21.93
2017-04-08T03:09:34.298Z,21.93
2017-04-08T03:10:43.028Z,21.88
2017-04-08T03:11:51.801Z,21.89
2017-04-08T03:13:00.543Z,21.91
2017-04-08T03:14:09.600Z,21.93
2017-04-08T03:15:18.371Z,21.89
2017-04-08T03:16:27.087Z,21.92
2017-04-08T03:17:35.823Z,21.92
2017-04-08T03:18:44.588Z,21.91
2017-04-08T03:19:53.358Z,21.83
2017-04-08T03:21:02.729Z,21.91
2017-04-08T03:22:11.759Z,21.95
2017-04-08T03:23:20.808Z,21.91
2017-04-08T03:24:29.572Z,21.91
2017-04-08T03:25:38.361Z,21.93
2017-04-08T03:26:47.156Z,21.88
2017-04-08T03:27:56.543Z,21.91
2017-04-08T03:29:05.581Z,21.89
2017-04-08T03:30:14.623Z,21.91
2017-04-08T03:31:23.376Z,21.89
2017-04-08T03:32:32.450Z,21.89
2017-04-08T03:33:41.163Z,21.89
2017-04-08T03:34:50.211Z,21.85
2017-04-08T03:35:59.273Z,21.88
2017-04-08T03:37:08.639Z,21.88
2017-04-08T03:38:17.411Z,21.92
2017-04-08T03:39:26.465Z,21.95
2017-04-08T03:40:35.234Z,21.89
2017-04-08T03:41:43.992Z,21.93
2017-04-08T03:42:52.714Z,21.88
2017-04-08T03:44:01.751Z,21.83
2017-04-08T03:45:10.515Z,21.88
2017-04-08T03:46:19.587Z,21.92
2017-04-08T03:47:28.653Z,21.88
2017-04-08T03:48:37.713Z,21.83
2017-04-08T03:49:46.468Z,21.95
2017-04-08T03:50:55.539Z,21.88
2017-04-08T03:52:04.909Z,21.96
2017-04-08T03:53:14.246Z,21.96
2017-04-08T03:54:22.995Z,21.92
2017-04-08T03:55:32.073Z,21.98
2017-04-08T03:56:41.141Z,21.93
2017-04-08T03:57:50.241Z,21.92
2017-04-08T03:58:59.572Z,21.95
2017-04-08T04:00:08.534Z,21.93
2017-04-08T04:01:17.578Z,21.95
2017-04-08T04:02:26.643Z,21.96
2017-04-08T04:03:36.015Z,21.95
2017-04-08T04:04:45.358Z,22.06
2017-04-08T04:05:54.395Z,22.02
2017-04-08T04:07:03.456Z,21.98
2017-04-08T04:08:12.228Z,21.96
2017-04-08T04:09:21.266Z,21.95
2017-04-08T04:10:30.907Z,21.98
2017-04-08T04:11:39.667Z,21.95
2017-04-08T04:12:48.733Z,22.07
2017-04-08T04:13:57.767Z,22.06
2017-04-08T04:15:06.506Z,22.02
2017-04-08T04:16:15.280Z,22.06
2017-04-08T04:17:24.038Z,22.06
2017-04-08T04:18:33.073Z,22.11
2017-04-08T04:19:41.769Z,22.08
2017-04-08T04:20:51.115Z,22.14
2017-04-08T04:21:59.882Z,22.04
2017-04-08T04:23:09.469Z,22.08
2017-04-08T04:24:18.487Z,22.15
2017-04-08T04:25:27.798Z,22.15
2017-04-08T04:26:36.841Z,22.13
2017-04-08T04:27:45.922Z,22.17
2017-04-08T04:28:55.610Z,22.22
2017-04-08T04:30:04.649Z,22.25
2017-04-08T04:31:13.380Z,22.23
2017-04-08T04:32:22.150Z,22.17
2017-04-08T04:33:31.205Z,22.23
2017-04-08T04:34:39.968Z,22.18
2017-04-08T04:35:49.335Z,22.26
2017-04-08T04:36:58.081Z,22.2
2017-04-08T04:38:07.153Z,22.23
2017-04-08T04:39:16.196Z,22.26
2017-04-08T04:40:24.958Z,22.29
2017-04-08T04:41:33.691Z,22.14
2017-04-08T04:42:42.433Z,22.15
2017-04-08T04:43:51.192Z,22.3
2017-04-08T04:44:59.962Z,22.23
2017-04-08T04:46:09.026Z,22.23
2017-04-08T04:47:17.787Z,22.26
2017-04-08T04:48:26.845Z,22.29
2017-04-08T04:49:35.593Z,22.3
2017-04-08T04:50:44.861Z,22.32
2017-04-08T04:51:54.191Z,22.28
2017-04-08T04:53:02.922Z,22.33
2017-04-08T04:54:11.656Z,22.38
2017-04-08T04:55:20.657Z,22.41
2017-04-08T04:56:29.702Z,22.44
2017-04-08T04:57:38.478Z,22.39
2017-04-08T04:58:47.551Z,22.36
2017-04-08T04:59:56.293Z,22.39
2017-04-08T05:01:05.028Z,22.33
2017-04-08T05:02:14.093Z,22.32
2017-04-08T05:03:23.126Z,22.35
2017-04-08T05:04:32.433Z,22.45
2017-04-08T05:05:41.170Z,22.41
2017-04-08T05:06:49.938Z,22.48
2017-04-08T05:07:58.696Z,22.38
2017-04-08T05:09:07.466Z,22.47
2017-04-08T05:10:16.229Z,22.45
2017-04-08T05:11:25.020Z,22.45
2017-04-08T05:12:33.791Z,22.44
2017-04-08T05:13:42.565Z,22.51
2017-04-08T05:14:51.639Z,22.53
2017-04-08T05:16:00.402Z,22.51
2017-04-08T05:17:09.627Z,22.55
2017-04-08T05:18:18.663Z,22.47
2017-04-08T05:19:27.690Z,22.54
2017-04-08T05:20:36.682Z,22.54
2017-04-08T05:21:45.378Z,22.53
2017-04-08T05:22:54.121Z,22.53
2017-04-08T05:24:03.190Z,22.53
2017-04-08T05:25:12.286Z,22.59
2017-04-08T05:26:21.346Z,22.6
2017-04-08T05:27:30.441Z,22.57
2017-04-08T05:28:39.849Z,22.57
2017-04-08T05:29:49.830Z,22.57
2017-04-08T05:30:58.581Z,22.66
2017-04-08T05:32:07.644Z,22.63
2017-04-08T05:33:16.366Z,22.68
2017-04-08T05:34:25.099Z,22.69
2017-04-08T05:35:33.865Z,22.66
2017-04-08T05:36:42.630Z,22.62
2017-04-08T05:37:51.397Z,22.69
2017-04-08T05:39:00.472Z,22.7
2017-04-08T05:40:09.238Z,22.78
2017-04-08T05:41:18.004Z,22.73
2017-04-08T05:42:27.032Z,22.7
2017-04-08T05:43:35.769Z,22.7
2017-04-08T05:44:45.122Z,22.75
2017-04-08T05:45:54.161Z,22.7
2017-04-08T05:47:02.918Z,22.66
2017-04-08T05:48:11.948Z,22.68
2017-04-08T05:49:21.252Z,22.7
2017-04-08T05:50:30.303Z,22.68
2017-04-08T05:51:39.639Z,22.68
2017-04-08T05:52:48.675Z,22.7
2017-04-08T05:53:58.064Z,22.73
2017-04-08T05:55:06.828Z,22.72
2017-04-08T05:56:15.894Z,22.78
2017-04-08T05:57:24.965Z,22.72
2017-04-08T05:58:34.344Z,22.76
2017-04-08T05:59:43.715Z,22.83
2017-04-08T06:00:53.398Z,22.69
2017-04-08T06:02:02.157Z,22.78
2017-04-08T06:03:11.223Z,22.78
2017-04-08T06:04:19.993Z,22.81
2017-04-08T06:05:28.754Z,22.75
2017-04-08T06:06:37.509Z,22.84
2017-04-08T06:07:46.864Z,22.83
2017-04-08T06:08:55.617Z,22.8
2017-04-08T06:10:04.990Z,22.76
2017-04-08T06:11:14.057Z,22.81
2017-04-08T06:12:22.827Z,22.88
2017-04-08T06:13:31.907Z,22.9
2017-04-08T06:14:41.598Z,22.91
2017-04-08T06:15:50.672Z,22.9
2017-04-08T06:16:59.763Z,22.85
2017-04-08T06:18:08.535Z,22.9
2017-04-08T06:19:17.300Z,22.85
2017-04-08T06:20:26.381Z,22.91
2017-04-08T06:21:35.416Z,22.91
2017-04-08T06:22:44.162Z,22.99
2017-04-08T06:23:52.922Z,22.94
2017-04-08T06:25:01.694Z,22.93
2017-04-08T06:26:10.458Z,22.91
2017-04-08T06:27:19.219Z,23
2017-04-08T06:28:28.009Z,22.96
2017-04-08T06:29:36.776Z,22.93
2017-04-08T06:30:45.529Z,22.94
2017-04-08T06:31:54.292Z,22.93
2017-04-08T06:33:03.072Z,22.99
2017-04-08T06:34:12.143Z,22.93
2017-04-08T06:35:20.918Z,22.93
2017-04-08T06:36:29.995Z,23.05
2017-04-08T06:37:38.764Z,23.05
2017-04-08T06:38:47.825Z,22.99
2017-04-08T06:39:56.596Z,23.05
2017-04-08T06:41:06.248Z,22.99
2017-04-08T06:42:14.983Z,23.02
2017-04-08T06:43:23.707Z,22.98
2017-04-08T06:44:32.756Z,23.03
2017-04-08T06:45:41.520Z,23.06
2017-04-08T06:46:50.880Z,22.98
2017-04-08T06:47:59.909Z,23.12
2017-04-08T06:49:08.946Z,23.05
2017-04-08T06:50:17.982Z,23.06
2017-04-08T06:51:26.987Z,23.02
2017-04-08T06:52:35.673Z,23.06
2017-04-08T06:53:44.722Z,23.06
2017-04-08T06:54:54.122Z,23.13
2017-04-08T06:56:03.169Z,23.1
2017-04-08T06:57:13.127Z,23.13
2017-04-08T06:58:22.498Z,23.09
2017-04-08T06:59:31.557Z,23.2
2017-04-08T07:00:40.614Z,23.12
2017-04-08T07:01:49.376Z,23.13
2017-04-08T07:02:58.437Z,23.21
2017-04-08T07:04:07.938Z,23.1
2017-04-08T07:05:17.003Z,23.1
2017-04-08T07:06:25.767Z,23.13
2017-04-08T07:07:34.531Z,23.18
2017-04-08T07:08:44.077Z,23.18
2017-04-08T07:09:53.431Z,23.13
2017-04-08T07:11:02.155Z,23.17
2017-04-08T07:12:10.872Z,23.2
2017-04-08T07:13:19.612Z,23.21
2017-04-08T07:14:28.377Z,23.25
2017-04-08T07:15:37.462Z,23.25
2017-04-08T07:16:46.526Z,23.17
2017-04-08T07:17:55.300Z,23.23
2017-04-08T07:19:04.065Z,23.27
2017-04-08T07:20:12.844Z,23.24
2017-04-08T07:21:21.617Z,23.24
2017-04-08T07:22:30.679Z,23.28
2017-04-08T07:23:40.054Z,23.27
2017-04-08T07:24:48.816Z,23.37
2017-04-08T07:25:57.847Z,23.34
2017-04-08T07:27:06.811Z,23.31
2017-04-08T07:28:15.528Z,23.28
2017-04-08T07:29:24.868Z,23.37
2017-04-08T07:30:33.939Z,23.37
2017-04-08T07:31:43.302Z,23.39
2017-04-08T07:32:52.100Z,23.47
2017-04-08T07:34:00.863Z,23.37
2017-04-08T07:35:09.609Z,23.41
2017-04-08T07:36:18.332Z,23.47
2017-04-08T07:37:27.370Z,23.46
2017-04-08T07:38:36.443Z,23.4
2017-04-08T07:39:45.204Z,23.41
2017-04-08T07:40:54.264Z,23.47
2017-04-08T07:42:03.346Z,23.48
2017-04-08T07:43:12.377Z,23.46
2017-04-08T07:44:21.425Z,23.54
2017-04-08T07:45:30.158Z,23.48
2017-04-08T07:46:39.228Z,23.54
2017-04-08T07:47:47.990Z,23.56
2017-04-08T07:48:57.374Z,23.56
2017-04-08T07:50:06.486Z,23.63
2017-04-08T07:51:15.253Z,23.66
2017-04-08T07:52:24.634Z,23.55
2017-04-08T07:53:33.365Z,23.61
2017-04-08T07:54:42.413Z,23.56
2017-04-08T07:55:51.178Z,23.63
2017-04-08T07:56:59.941Z,23.66
2017-04-08T07:58:08.754Z,23.71
2017-04-08T07:59:18.732Z,23.68
2017-04-08T08:00:28.112Z,23.68
2017-04-08T08:01:37.190Z,23.74
2017-04-08T08:02:46.504Z,23.71
2017-04-08T08:03:56.184Z,23.69
2017-04-08T08:05:05.575Z,23.74
2017-04-08T08:06:14.641Z,23.76
2017-04-08T08:07:23.371Z,23.74
2017-04-08T08:08:32.413Z,23.73
2017-04-08T08:09:41.793Z,23.76
2017-04-08T08:10:50.565Z,23.8
2017-04-08T08:11:59.624Z,23.8
2017-04-08T08:13:08.393Z,23.69
2017-04-08T08:14:17.461Z,23.69
2017-04-08T08:15:26.536Z,23.76
2017-04-08T08:16:35.301Z,23.77
2017-04-08T08:17:44.071Z,23.8
2017-04-08T08:18:52.836Z,23.74
2017-04-08T08:20:01.602Z,23.77
2017-04-08T08:21:10.975Z,23.78
2017-04-08T08:22:20.010Z,23.74
2017-04-08T08:23:28.763Z,23.77
2017-04-08T08:24:38.151Z,23.76
2017-04-08T08:25:47.479Z,23.74
2017-04-08T08:26:56.175Z,23.8
2017-04-08T08:28:05.532Z,23.73
2017-04-08T08:29:14.920Z,23.73
2017-04-08T08:30:23.950Z,23.8
2017-04-08T08:31:32.688Z,23.74
2017-04-08T08:32:41.762Z,23.93
2017-04-08T08:33:51.150Z,23.81
2017-04-08T08:35:00.497Z,23.92
2017-04-08T08:36:09.606Z,23.96
2017-04-08T08:37:18.679Z,24.01
2017-04-08T08:38:27.751Z,24.02
2017-04-08T08:39:36.520Z,23.99
2017-04-08T08:40:45.313Z,23.95
2017-04-08T08:41:54.071Z,23.96
2017-04-08T08:43:03.116Z,23.88
2017-04-08T08:44:12.818Z,23.96
2017-04-08T08:45:22.185Z,23.91
2017-04-08T08:46:31.560Z,23.99
2017-04-08T08:47:40.626Z,23.91
2017-04-08T08:48:50.298Z,23.91
2017-04-08T08:49:59.337Z,23.98
2017-04-08T08:51:08.452Z,23.83
2017-04-08T08:52:17.223Z,23.91
2017-04-08T08:53:25.978Z,23.76
2017-04-08T08:54:34.742Z,23.84
2017-04-08T08:55:43.473Z,23.81
2017-04-08T08:56:52.204Z,23.88
2017-04-08T08:58:00.971Z,23.83
2017-04-08T08:59:10.062Z,23.84
2017-04-08T09:00:18.829Z,23.84
2017-04-08T09:01:27.560Z,23.84
2017-04-08T09:02:36.603Z,23.81
2017-04-08T09:03:45.672Z,23.73
2017-04-08T09:04:55.344Z,23.83
2017-04-08T09:06:05.014Z,23.73
2017-04-08T09:07:14.382Z,23.78
2017-04-08T09:08:23.765Z,23.76
2017-04-08T09:09:33.100Z,23.78
2017-04-08T09:10:42.174Z,23.73
2017-04-08T09:11:50.943Z,23.76
2017-04-08T09:12:59.710Z,23.74
2017-04-08T09:14:08.479Z,23.68
2017-04-08T09:15:17.215Z,23.76
2017-04-08T09:16:25.914Z,23.76
2017-04-08T09:17:34.649Z,23.76
2017-04-08T09:18:44.374Z,23.68
2017-04-08T09:19:54.063Z,23.68
2017-04-08T09:21:02.789Z,23.69
2017-04-08T09:22:12.146Z,23.73
2017-04-08T09:23:21.481Z,23.69
2017-04-08T09:24:30.178Z,23.66
2017-04-08T09:25:38.904Z,23.68
2017-04-08T09:26:48.243Z,23.73
2017-04-08T09:27:57.007Z,23.77
2017-04-08T09:29:05.727Z,23.68
2017-04-08T09:30:14.784Z,23.73
2017-04-08T09:31:24.187Z,23.58
2017-04-08T09:32:33.215Z,23.56
2017-04-08T09:33:41.914Z,23.68
2017-04-08T09:34:50.635Z,23.68
2017-04-08T09:35:59.981Z,23.65
2017-04-08T09:37:09.053Z,23.71
2017-04-08T09:38:17.818Z,23.69
2017-04-08T09:39:27.509Z,23.68
2017-04-08T09:40:36.295Z,23.71
2017-04-08T09:41:45.352Z,23.77
2017-04-08T09:42:54.082Z,23.81
2017-04-08T09:44:02.821Z,23.78
2017-04-08T09:45:11.889Z,23.84
2017-04-08T09:46:20.927Z,23.78
2017-04-08T09:47:30.277Z,23.8
2017-04-08T09:48:39.655Z,23.81
2017-04-08T09:49:48.419Z,23.88
2017-04-08T09:50:57.789Z,23.84
2017-04-08T09:52:06.538Z,23.8
2017-04-08T09:53:15.927Z,23.93
2017-04-08T09:54:25.915Z,23.86
2017-04-08T09:55:34.992Z,23.84
2017-04-08T09:56:44.062Z,23.88
2017-04-08T09:57:53.084Z,23.84
2017-04-08T09:59:02.431Z,23.88
2017-04-08T10:00:11.176Z,23.84
2017-04-08T10:01:19.911Z,23.8
2017-04-08T10:02:28.986Z,23.84
2017-04-08T10:03:37.756Z,23.77
2017-04-08T10:04:46.791Z,23.8
2017-04-08T10:05:56.135Z,23.83
2017-04-08T10:07:05.202Z,23.76
2017-04-08T10:08:14.772Z,23.77
2017-04-08T10:09:23.539Z,23.8
2017-04-08T10:10:32.922Z,23.83
2017-04-08T10:11:42.010Z,23.71
2017-04-08T10:12:51.087Z,23.8
2017-04-08T10:14:00.151Z,23.76
2017-04-08T10:15:08.919Z,23.81
2017-04-08T10:16:17.645Z,23.73
2017-04-08T10:17:26.683Z,23.77
2017-04-08T10:18:35.717Z,23.78
2017-04-08T10:19:44.450Z,23.81
2017-04-08T10:20:53.537Z,23.81
2017-04-08T10:22:02.920Z,23.84
2017-04-08T10:23:12.500Z,23.86
2017-04-08T10:24:21.264Z,23.81
2017-04-08T10:25:30.036Z,23.83
2017-04-08T10:26:39.080Z,23.84
2017-04-08T10:27:48.104Z,23.84
2017-04-08T10:28:57.751Z,23.88
2017-04-08T10:30:06.819Z,23.76
2017-04-08T10:31:15.883Z,23.88
2017-04-08T10:32:24.944Z,23.93
2017-04-08T10:33:33.699Z,23.91
2017-04-08T10:34:42.769Z,23.83
2017-04-08T10:35:51.543Z,23.96
2017-04-08T10:37:00.614Z,23.88
2017-04-08T10:38:09.685Z,23.92
2017-04-08T10:39:18.442Z,23.99
2017-04-08T10:40:27.376Z,23.95
2017-04-08T10:41:36.119Z,23.95
2017-04-08T10:42:44.876Z,23.95
2017-04-08T10:43:53.590Z,23.96
2017-04-08T10:45:02.941Z,23.98
2017-04-08T10:46:11.711Z,24.01
2017-04-08T10:47:21.076Z,23.95
2017-04-08T10:48:30.414Z,23.96
2017-04-08T10:49:39.147Z,24.03
2017-04-08T10:50:48.232Z,24.06
2017-04-08T10:51:57.598Z,24.11
2017-04-08T10:53:06.665Z,24.05
2017-04-08T10:54:15.426Z,24.1
2017-04-08T10:55:24.209Z,24.08
2017-04-08T10:56:33.242Z,24.11
2017-04-08T10:57:41.935Z,24.21
2017-04-08T10:58:50.673Z,24.24
2017-04-08T10:59:59.409Z,24.29
2017-04-08T11:01:08.286Z,24.35
2017-04-08T11:02:17.355Z,24.4
2017-04-08T11:03:26.119Z,24.47
2017-04-08T11:04:35.189Z,24.6
2017-04-08T11:05:44.249Z,24.66
2017-04-08T11:06:53.005Z,24.7
2017-04-08T11:08:01.772Z,24.91
2017-04-08T11:09:10.558Z,25.01
2017-04-08T11:10:19.932Z,25.06
2017-04-08T11:11:29.041Z,25.18
2017-04-08T11:12:38.108Z,25.35
2017-04-08T11:13:47.183Z,25.43
2017-04-08T11:14:55.946Z,25.51
2017-04-08T11:16:04.746Z,25.53
2017-04-08T11:17:13.811Z,25.53
2017-04-08T11:18:22.584Z,25.73
2017-04-08T11:19:31.639Z,25.7
2017-04-08T11:20:41.595Z,25.78
2017-04-08T11:21:50.664Z,25.8
2017-04-08T11:22:59.420Z,25.88
2017-04-08T11:24:08.451Z,25.96
2017-04-08T11:25:17.453Z,26.16
2017-04-08T11:26:27.396Z,26.45
2017-04-08T11:27:36.470Z,26.65
2017-04-08T11:28:45.850Z,26.68
2017-04-08T11:29:55.192Z,26.65
2017-04-08T11:31:04.850Z,26.65
2017-04-08T11:32:13.923Z,26.59
2017-04-08T11:33:23.310Z,26.6
2017-04-08T11:34:32.645Z,26.52
2017-04-08T11:35:41.403Z,26.41
2017-04-08T11:36:50.732Z,26.45
2017-04-08T11:38:00.080Z,26.37
2017-04-08T11:39:09.110Z,26.36
2017-04-08T11:40:18.113Z,26.4
2017-04-08T11:41:27.159Z,26.37
2017-04-08T11:42:35.928Z,26.33
2017-04-08T11:43:44.690Z,26.31
2017-04-08T11:44:54.062Z,26.33
2017-04-08T11:46:02.851Z,26.19
2017-04-08T11:47:11.919Z,26.22
2017-04-08T11:48:20.678Z,26.19
2017-04-08T11:49:29.744Z,26.18
2017-04-08T11:50:38.806Z,26.19
2017-04-08T11:51:47.560Z,26.16
2017-04-08T11:52:56.333Z,26.22
2017-04-08T11:54:05.100Z,26.22
2017-04-08T11:55:13.872Z,26.16
2017-04-08T11:56:22.592Z,26.15
2017-04-08T11:57:31.332Z,26.05
2017-04-08T11:58:40.088Z,26.02
2017-04-08T11:59:49.143Z,25.98
2017-04-08T12:00:58.518Z,25.99
2017-04-08T12:02:07.249Z,25.96
2017-04-08T12:03:16.253Z,25.95
2017-04-08T12:04:25.919Z,25.99
2017-04-08T12:05:34.692Z,26.02
2017-04-08T12:06:43.452Z,26.1
2017-04-08T12:07:52.832Z,26.22
2017-04-08T12:09:02.416Z,26.16
2017-04-08T12:10:12.087Z,26.29
2017-04-08T12:11:20.856Z,26.38
2017-04-08T12:12:29.929Z,26.38
2017-04-08T12:13:38.957Z,26.45
2017-04-08T12:14:47.712Z,26.44
2017-04-08T12:15:56.788Z,26.6
2017-04-08T12:17:05.565Z,26.6
2017-04-08T12:18:14.581Z,26.6
2017-04-08T12:19:23.655Z,26.53
2017-04-08T12:20:32.380Z,26.65
2017-04-08T12:21:41.091Z,26.65
2017-04-08T12:22:49.866Z,26.65
2017-04-08T12:23:58.638Z,26.65
2017-04-08T12:25:07.729Z,26.65
2017-04-08T12:26:16.462Z,26.62
2017-04-08T12:27:25.504Z,26.71
2017-04-08T12:28:34.263Z,26.68
2017-04-08T12:29:43.019Z,26.63
2017-04-08T12:30:51.801Z,26.63
2017-04-08T12:32:00.566Z,26.62
2017-04-08T12:33:09.495Z,26.63
2017-04-08T12:34:18.538Z,26.6
2017-04-08T12:35:27.910Z,26.62
2017-04-08T12:36:36.983Z,26.58
2017-04-08T12:37:45.751Z,26.62
2017-04-08T12:38:54.814Z,26.58
2017-04-08T12:40:04.139Z,26.66
2017-04-08T12:41:13.181Z,26.51
2017-04-08T12:42:22.245Z,26.51
2017-04-08T12:43:31.275Z,26.56
2017-04-08T12:44:40.311Z,26.56
2017-04-08T12:45:49.334Z,26.53
2017-04-08T12:46:58.077Z,26.47
2017-04-08T12:48:06.849Z,26.47
2017-04-08T12:49:15.612Z,26.48
2017-04-08T12:50:24.383Z,26.44
2017-04-08T12:51:33.159Z,26.48
2017-04-08T12:52:42.220Z,26.43
2017-04-08T12:53:50.940Z,26.48
2017-04-08T12:54:59.680Z,26.52
2017-04-08T12:56:08.443Z,26.52
2017-04-08T12:57:17.511Z,26.41
2017-04-08T12:58:26.273Z,26.38
2017-04-08T12:59:35.243Z,26.41
2017-04-08T13:00:44.019Z,26.33
2017-04-08T13:01:52.789Z,26.41
2017-04-08T13:03:01.860Z,26.33
2017-04-08T13:04:10.623Z,26.31
2017-04-08T13:05:19.703Z,26.4
2017-04-08T13:06:28.773Z,26.33
2017-04-08T13:07:37.538Z,26.31
2017-04-08T13:08:46.311Z,26.36
2017-04-08T13:09:55.382Z,26.33
2017-04-08T13:11:04.192Z,26.31
2017-04-08T13:12:12.955Z,26.29
2017-04-08T13:13:22.638Z,26.28
2017-04-08T13:14:31.709Z,26.18
2017-04-08T13:15:40.791Z,26.16
2017-04-08T13:16:49.817Z,26.21
2017-04-08T13:17:58.546Z,26.18
2017-04-08T13:19:07.914Z,26.1
2017-04-08T13:20:16.988Z,26.13
2017-04-08T13:21:25.683Z,26.05
2017-04-08T13:22:34.381Z,26.05
2017-04-08T13:23:43.742Z,26.09
2017-04-08T13:24:52.516Z,26
2017-04-08T13:26:02.199Z,26.05
2017-04-08T13:27:11.774Z,26.02
2017-04-08T13:28:20.843Z,26.02
2017-04-08T13:29:30.823Z,26.02
2017-04-08T13:30:39.585Z,25.91
2017-04-08T13:31:48.343Z,25.91
2017-04-08T13:32:57.371Z,25.95
2017-04-08T13:34:06.402Z,25.9
2017-04-08T13:35:15.164Z,25.95
2017-04-08T13:36:23.897Z,25.85
2017-04-08T13:37:32.644Z,25.81
2017-04-08T13:38:41.721Z,25.81
2017-04-08T13:39:50.488Z,25.85
2017-04-08T13:40:59.591Z,25.81
2017-04-08T13:42:08.619Z,25.93
2017-04-08T13:43:17.358Z,25.77
2017-04-08T13:44:26.122Z,25.87
2017-04-08T13:45:34.894Z,25.83
2017-04-08T13:46:43.662Z,25.83
2017-04-08T13:47:52.721Z,25.83
2017-04-08T13:49:01.743Z,25.88
2017-04-08T13:50:10.787Z,25.85
2017-04-08T13:51:19.855Z,25.87
2017-04-08T13:52:28.598Z,25.8
2017-04-08T13:53:37.634Z,25.75
2017-04-08T13:54:46.681Z,25.75
2017-04-08T13:55:55.409Z,25.78
2017-04-08T13:57:04.163Z,25.73
2017-04-08T13:58:12.937Z,25.7
2017-04-08T13:59:21.710Z,25.73
2017-04-08T14:00:30.471Z,25.75
2017-04-08T14:01:39.841Z,25.78
2017-04-08T14:02:48.910Z,25.75
2017-04-08T14:03:58.245Z,25.8
2017-04-08T14:05:07.001Z,25.77
2017-04-08T14:06:15.738Z,25.73
2017-04-08T14:07:24.767Z,25.65
2017-04-08T14:08:33.768Z,25.6
2017-04-08T14:09:43.112Z,25.7
2017-04-08T14:10:52.136Z,25.62
2017-04-08T14:12:00.865Z,25.62
2017-04-08T14:13:10.232Z,25.53
2017-04-08T14:14:19.260Z,25.54
2017-04-08T14:15:28.301Z,25.6
2017-04-08T14:16:37.366Z,25.62
2017-04-08T14:17:46.398Z,25.6
2017-04-08T14:18:55.420Z,25.58
2017-04-08T14:20:04.131Z,25.54
2017-04-08T14:21:13.479Z,25.54
2017-04-08T14:22:22.614Z,25.53
2017-04-08T14:23:31.974Z,25.5
2017-04-08T14:24:41.042Z,25.51
2017-04-08T14:25:50.373Z,25.53
2017-04-08T14:26:59.118Z,25.55
2017-04-08T14:28:07.893Z,25.51
2017-04-08T14:29:17.287Z,25.44
2017-04-08T14:30:26.352Z,25.47
2017-04-08T14:31:35.075Z,25.43
2017-04-08T14:32:43.781Z,25.36
2017-04-08T14:33:52.791Z,25.4
2017-04-08T14:35:02.432Z,25.38
2017-04-08T14:36:11.494Z,25.33
2017-04-08T14:37:20.556Z,25.33
2017-04-08T14:38:29.635Z,25.32
2017-04-08T14:39:39.620Z,25.38
2017-04-08T14:40:48.376Z,25.32
2017-04-08T14:41:57.416Z,25.35
2017-04-08T14:43:06.458Z,25.36
2017-04-08T14:44:15.838Z,25.31
2017-04-08T14:45:25.220Z,25.28
2017-04-08T14:46:33.993Z,25.23
2017-04-08T14:47:43.023Z,25.25
2017-04-08T14:48:52.377Z,25.21
2017-04-08T14:50:01.135Z,25.26
2017-04-08T14:51:10.364Z,25.23
2017-04-08T14:52:19.103Z,25.22